createdAt,value
2023-02-23T00:00:24.412Z,1.67
2023-02-23T00:01:27.290Z,1.00
2023-02-23T00:02:30.214Z,1.17
2023-02-23T00:03:33.152Z,1.43
2023-02-23T00:04:36.112Z,1.67
2023-02-23T00:05:39.050Z,1.33
2023-02-23T00:06:42.003Z,1.57
2023-02-23T00:07:44.924Z,1.00
2023-02-23T00:08:47.980Z,1.43
2023-02-23T00:09:50.810Z,1.57
2023-02-23T00:10:53.741Z,1.33
2023-02-23T00:11:56.705Z,1.86
2023-02-23T00:12:59.719Z,2.00
2023-02-23T00:14:02.600Z,2.43
2023-02-23T00:15:05.459Z,1.71
2023-02-23T00:16:08.468Z,1.67
2023-02-23T00:17:11.481Z,2.57
2023-02-23T00:18:14.486Z,3.00
2023-02-23T00:19:17.499Z,1.67
2023-02-23T00:20:20.421Z,1.43
2023-02-23T00:21:23.315Z,2.00
2023-02-23T00:22:26.360Z,1.67
2023-02-23T00:23:29.966Z,1.43
2023-02-23T00:24:32.845Z,1.57
2023-02-23T00:25:35.704Z,1.57
2023-02-23T00:26:38.658Z,0.83
2023-02-23T00:27:41.505Z,2.33
2023-02-23T00:28:44.550Z,2.67
2023-02-23T00:29:47.406Z,1.33
2023-02-23T00:30:50.403Z,2.00
2023-02-23T00:31:53.449Z,1.67
2023-02-23T00:32:56.419Z,1.00
2023-02-23T00:33:59.256Z,1.43
2023-02-23T00:35:02.321Z,1.67
2023-02-23T00:36:05.130Z,1.43
2023-02-23T00:37:08.355Z,2.00
2023-02-23T00:38:11.118Z,1.67
2023-02-23T00:39:14.163Z,1.33
2023-02-23T00:40:16.747Z,2.00
2023-02-23T00:41:19.893Z,1.67
2023-02-23T00:42:22.882Z,1.00
2023-02-23T00:43:25.760Z,1.00
2023-02-23T00:44:28.637Z,1.00
2023-02-23T00:45:31.573Z,1.43
2023-02-23T00:46:34.538Z,2.00
2023-02-23T00:47:37.203Z,2.00
2023-02-23T00:48:40.041Z,1.67
2023-02-23T00:49:43.048Z,0.67
2023-02-23T00:50:45.902Z,1.29
2023-02-23T00:51:48.769Z,1.67
2023-02-23T00:52:51.755Z,1.00
2023-02-23T00:53:54.600Z,1.67
2023-02-23T00:54:57.483Z,1.67
2023-02-23T00:56:00.439Z,1.57
2023-02-23T00:57:03.360Z,1.00
2023-02-23T00:58:06.205Z,1.00
2023-02-23T00:59:09.005Z,1.00
2023-02-23T01:00:11.861Z,0.67
2023-02-23T01:01:14.879Z,0.00
2023-02-23T01:02:17.817Z,0.00
2023-02-23T01:03:20.607Z,1.50
2023-02-23T01:04:23.479Z,3.00
2023-02-23T01:05:26.381Z,2.00
2023-02-23T01:06:29.274Z,1.57
2023-02-23T01:07:32.097Z,1.33
2023-02-23T01:08:34.917Z,1.00
2023-02-23T01:09:37.771Z,1.00
2023-02-23T01:10:40.528Z,1.33
2023-02-23T01:11:43.295Z,1.83
2023-02-23T01:12:46.028Z,1.50
2023-02-23T01:13:48.722Z,1.00
2023-02-23T01:14:51.421Z,1.00
2023-02-23T01:15:54.105Z,1.33
2023-02-23T01:16:56.765Z,2.00
2023-02-23T01:17:59.488Z,1.67
2023-02-23T01:19:02.446Z,1.00
2023-02-23T01:20:05.392Z,2.00
2023-02-23T01:21:08.319Z,1.83
2023-02-23T01:22:11.260Z,1.33
2023-02-23T01:23:14.131Z,1.00
2023-02-23T01:24:16.934Z,1.33
2023-02-23T01:25:19.995Z,1.57
2023-02-23T01:26:22.864Z,1.00
2023-02-23T01:27:25.729Z,1.00
2023-02-23T01:28:28.514Z,1.00
2023-02-23T01:29:31.479Z,1.00
2023-02-23T01:30:34.620Z,1.00
2023-02-23T01:31:37.738Z,1.43
2023-02-23T01:32:40.719Z,0.57
2023-02-23T01:33:43.730Z,0.33
2023-02-23T01:34:46.568Z,1.67
2023-02-23T01:35:49.463Z,1.29
2023-02-23T01:36:52.427Z,1.00
2023-02-23T01:37:55.291Z,1.00
2023-02-23T01:38:58.130Z,1.67
2023-02-23T01:40:01.022Z,1.33
2023-02-23T01:41:03.901Z,1.14
2023-02-23T01:42:06.807Z,1.33
2023-02-23T01:43:09.588Z,0.00
2023-02-23T01:44:12.488Z,0.83
2023-02-23T01:45:15.398Z,1.33
2023-02-23T01:46:18.392Z,1.14
2023-02-23T01:47:21.353Z,1.33
2023-02-23T01:48:24.140Z,1.33
2023-02-23T01:49:26.997Z,0.43
2023-02-23T01:50:29.984Z,1.00
2023-02-23T01:51:32.899Z,1.43
2023-02-23T01:52:35.632Z,1.00
2023-02-23T01:53:38.390Z,0.67
2023-02-23T01:54:41.276Z,0.33
2023-02-23T01:55:43.987Z,0.67
2023-02-23T01:56:46.711Z,0.33
2023-02-23T01:57:49.313Z,1.00
2023-02-23T01:58:51.873Z,0.00
2023-02-23T01:59:54.555Z,0.00
2023-02-23T02:00:57.170Z,0.83
2023-02-23T02:02:00.026Z,0.67
2023-02-23T02:03:03.032Z,0.57
2023-02-23T02:04:05.919Z,1.00
2023-02-23T02:05:08.823Z,0.67
2023-02-23T02:06:11.755Z,1.14
2023-02-23T02:07:14.699Z,1.00
2023-02-23T02:08:17.651Z,0.67
2023-02-23T02:09:20.784Z,0.43
2023-02-23T02:10:23.670Z,1.00
2023-02-23T02:11:26.623Z,0.67
2023-02-23T02:12:29.478Z,1.00
2023-02-23T02:13:32.512Z,0.57
2023-02-23T02:14:35.363Z,0.14
2023-02-23T02:15:38.248Z,1.00
2023-02-23T02:16:41.030Z,1.00
2023-02-23T02:17:43.900Z,1.00
2023-02-23T02:18:46.870Z,0.83
2023-02-23T02:19:49.759Z,0.71
2023-02-23T02:20:52.625Z,1.00
2023-02-23T02:21:55.572Z,0.67
2023-02-23T02:22:58.499Z,0.00
2023-02-23T02:24:01.420Z,0.17
2023-02-23T02:25:04.505Z,0.67
2023-02-23T02:26:07.489Z,0.00
2023-02-23T02:27:10.191Z,0.86
2023-02-23T02:28:13.150Z,1.33
2023-02-23T02:29:16.129Z,1.43
2023-02-23T02:30:19.017Z,0.71
2023-02-23T02:31:22.461Z,0.00
2023-02-23T02:32:25.388Z,0.00
2023-02-23T02:33:28.231Z,0.00
2023-02-23T02:34:31.079Z,0.00
2023-02-23T02:35:34.011Z,0.83
2023-02-23T02:36:36.854Z,0.67
2023-02-23T02:37:39.721Z,0.43
2023-02-23T02:38:42.683Z,0.67
2023-02-23T02:39:45.609Z,0.33
2023-02-23T02:40:48.757Z,0.57
2023-02-23T02:41:51.667Z,0.14
2023-02-23T02:42:54.461Z,0.14
2023-02-23T02:43:57.334Z,0.00
2023-02-23T02:45:00.453Z,0.33
2023-02-23T02:46:03.212Z,1.00
2023-02-23T02:47:05.901Z,0.67
2023-02-23T02:48:08.614Z,0.33
2023-02-23T02:49:11.290Z,0.83
2023-02-23T02:50:13.901Z,0.00
2023-02-23T02:51:16.821Z,0.00
2023-02-23T02:52:19.739Z,0.00
2023-02-23T02:53:22.407Z,0.00
2023-02-23T02:54:24.966Z,0.17
2023-02-23T02:55:27.840Z,0.33
2023-02-23T02:56:30.875Z,0.67
2023-02-23T02:57:33.873Z,0.43
2023-02-23T02:58:36.808Z,1.00
2023-02-23T02:59:39.652Z,1.00
2023-02-23T03:00:42.490Z,0.33
2023-02-23T03:01:45.288Z,1.00
2023-02-23T03:02:48.167Z,0.67
2023-02-23T03:03:51.049Z,0.00
2023-02-23T03:04:53.910Z,0.43
2023-02-23T03:05:56.785Z,1.00
2023-02-23T03:06:59.753Z,1.00
2023-02-23T03:08:02.618Z,1.29
2023-02-23T03:09:05.479Z,0.00
2023-02-23T03:10:08.306Z,0.50
2023-02-23T03:11:11.077Z,1.57
2023-02-23T03:12:13.859Z,0.67
2023-02-23T03:13:16.533Z,1.00
2023-02-23T03:14:19.440Z,1.00
2023-02-23T03:15:22.212Z,0.67
2023-02-23T03:16:25.125Z,0.00
2023-02-23T03:17:28.060Z,1.00
2023-02-23T03:18:31.114Z,1.00
2023-02-23T03:19:33.934Z,0.67
2023-02-23T03:20:36.828Z,1.57
2023-02-23T03:21:39.675Z,1.00
2023-02-23T03:22:42.593Z,0.67
2023-02-23T03:23:45.455Z,0.43
2023-02-23T03:24:48.439Z,1.00
2023-02-23T03:25:51.320Z,1.00
2023-02-23T03:26:54.117Z,0.71
2023-02-23T03:27:56.938Z,0.83
2023-02-23T03:29:00.127Z,0.67
2023-02-23T03:30:03.077Z,0.57
2023-02-23T03:31:05.895Z,0.00
2023-02-23T03:32:08.986Z,0.00
2023-02-23T03:33:11.958Z,0.00
2023-02-23T03:34:14.842Z,0.00
2023-02-23T03:35:17.797Z,0.57
2023-02-23T03:36:20.650Z,0.33
2023-02-23T03:37:23.578Z,1.00
2023-02-23T03:38:26.535Z,0.57
2023-02-23T03:39:29.433Z,0.33
2023-02-23T03:40:32.407Z,0.00
2023-02-23T03:41:35.470Z,0.33
2023-02-23T03:42:38.426Z,1.00
2023-02-23T03:43:41.241Z,0.57
2023-02-23T03:44:44.142Z,0.33
2023-02-23T03:45:47.040Z,1.00
2023-02-23T03:46:49.983Z,1.00
2023-02-23T03:47:52.965Z,0.67
2023-02-23T03:48:55.849Z,0.67
2023-02-23T03:49:58.670Z,0.00
2023-02-23T03:51:01.481Z,0.33
2023-02-23T03:52:04.449Z,1.00
2023-02-23T03:53:07.328Z,0.57
2023-02-23T03:54:10.332Z,0.67
2023-02-23T03:55:13.188Z,0.33
2023-02-23T03:56:16.266Z,0.86
2023-02-23T03:57:19.025Z,0.86
2023-02-23T03:58:21.948Z,1.67
2023-02-23T03:59:24.789Z,0.14
2023-02-23T04:00:27.775Z,0.57
2023-02-23T04:01:30.755Z,0.33
2023-02-23T04:02:33.667Z,0.00
2023-02-23T04:03:36.535Z,0.14
2023-02-23T04:04:39.346Z,0.50
2023-02-23T04:05:42.231Z,0.67
2023-02-23T04:06:45.208Z,0.00
2023-02-23T04:07:48.083Z,0.00
2023-02-23T04:08:51.000Z,0.00
2023-02-23T04:09:53.832Z,1.00
2023-02-23T04:10:56.753Z,1.00
2023-02-23T04:11:59.679Z,1.00
2023-02-23T04:13:02.576Z,1.43
2023-02-23T04:14:05.556Z,1.14
2023-02-23T04:15:08.494Z,0.00
2023-02-23T04:16:11.392Z,0.33
2023-02-23T04:17:14.371Z,1.00
2023-02-23T04:18:17.211Z,1.00
2023-02-23T04:19:20.096Z,0.67
2023-02-23T04:20:22.979Z,0.71
2023-02-23T04:21:25.796Z,1.00
2023-02-23T04:22:28.651Z,1.33
2023-02-23T04:23:31.509Z,1.14
2023-02-23T04:24:34.474Z,0.33
2023-02-23T04:25:37.375Z,1.00
2023-02-23T04:26:40.215Z,0.57
2023-02-23T04:27:43.027Z,0.00
2023-02-23T04:28:45.890Z,0.67
2023-02-23T04:29:48.889Z,1.14
2023-02-23T04:30:51.786Z,0.00
2023-02-23T04:31:54.778Z,0.00
2023-02-23T04:32:57.636Z,0.00
2023-02-23T04:34:00.478Z,0.33
2023-02-23T04:35:03.452Z,0.67
2023-02-23T04:36:06.377Z,1.00
2023-02-23T04:37:09.186Z,1.17
2023-02-23T04:38:12.027Z,1.33
2023-02-23T04:39:14.987Z,0.43
2023-02-23T04:40:17.758Z,0.67
2023-02-23T04:41:20.587Z,0.14
2023-02-23T04:42:23.434Z,0.00
2023-02-23T04:43:25.978Z,0.33
2023-02-23T04:44:29.791Z,0.67
2023-02-23T04:45:32.398Z,0.62
2023-02-23T04:46:35.020Z,0.67
2023-02-23T04:47:37.707Z,0.33
2023-02-23T04:48:40.280Z,0.67
2023-02-23T04:49:42.946Z,0.33
2023-02-23T04:50:45.535Z,0.67
2023-02-23T04:51:48.165Z,0.33
2023-02-23T04:52:50.740Z,0.83
2023-02-23T04:53:53.340Z,0.00
2023-02-23T04:54:55.947Z,0.67
2023-02-23T04:55:58.635Z,1.67
2023-02-23T04:57:01.296Z,1.00
2023-02-23T04:58:03.969Z,1.00
2023-02-23T04:59:06.613Z,1.00
2023-02-23T05:00:09.209Z,0.57
2023-02-23T05:01:11.961Z,0.33
2023-02-23T05:02:14.687Z,1.33
2023-02-23T05:03:17.313Z,1.67
2023-02-23T05:04:19.898Z,1.00
2023-02-23T05:05:22.509Z,0.67
2023-02-23T05:06:25.101Z,0.67
2023-02-23T05:07:27.878Z,0.50
2023-02-23T05:08:30.479Z,1.14
2023-02-23T05:09:33.165Z,1.00
2023-02-23T05:10:35.817Z,1.00
2023-02-23T05:11:38.470Z,1.00
2023-02-23T05:12:41.128Z,1.00
2023-02-23T05:13:43.791Z,0.71
2023-02-23T05:14:46.466Z,1.00
2023-02-23T05:15:49.138Z,1.00
2023-02-23T05:16:51.969Z,1.00
2023-02-23T05:17:54.721Z,1.00
2023-02-23T05:18:57.410Z,0.67
2023-02-23T05:20:00.251Z,0.67
2023-02-23T05:21:02.894Z,0.00
2023-02-23T05:22:05.576Z,0.00
2023-02-23T05:23:08.235Z,0.14
2023-02-23T05:24:10.846Z,0.33
2023-02-23T05:25:13.499Z,0.67
2023-02-23T05:26:16.117Z,0.00
2023-02-23T05:27:18.709Z,0.00
2023-02-23T05:28:21.318Z,0.00
2023-02-23T05:29:24.098Z,0.67
2023-02-23T05:30:26.827Z,0.33
2023-02-23T05:31:29.585Z,0.50
2023-02-23T05:32:32.385Z,1.00
2023-02-23T05:33:35.038Z,0.67
2023-02-23T05:34:37.716Z,0.00
2023-02-23T05:35:40.360Z,0.50
2023-02-23T05:36:42.980Z,1.00
2023-02-23T05:37:45.636Z,0.50
2023-02-23T05:38:48.280Z,0.67
2023-02-23T05:39:50.943Z,1.33
2023-02-23T05:40:53.522Z,0.33
2023-02-23T05:41:56.126Z,0.83
2023-02-23T05:42:58.856Z,0.33
2023-02-23T05:44:01.864Z,1.00
2023-02-23T05:45:04.536Z,1.00
2023-02-23T05:46:07.233Z,0.67
2023-02-23T05:47:09.815Z,0.67
2023-02-23T05:48:12.510Z,1.00
2023-02-23T05:49:15.198Z,0.83
2023-02-23T05:50:17.810Z,1.33
2023-02-23T05:51:20.647Z,1.33
2023-02-23T05:52:23.472Z,0.14
2023-02-23T05:53:26.174Z,1.00
2023-02-23T05:54:28.819Z,0.57
2023-02-23T05:55:31.569Z,1.00
2023-02-23T05:56:34.698Z,0.71
2023-02-23T05:57:37.663Z,0.50
2023-02-23T05:58:40.618Z,0.00
2023-02-23T05:59:43.462Z,0.57
2023-02-23T06:00:46.609Z,0.67
2023-02-23T06:01:49.563Z,1.00
2023-02-23T06:02:52.922Z,0.67
2023-02-23T06:03:55.967Z,0.00
2023-02-23T06:04:58.963Z,0.33
2023-02-23T06:06:01.949Z,0.67
2023-02-23T06:07:04.764Z,0.43
2023-02-23T06:08:07.765Z,1.00
2023-02-23T06:09:10.627Z,0.17
2023-02-23T06:10:13.403Z,0.33
2023-02-23T06:11:16.237Z,0.00
2023-02-23T06:12:19.188Z,0.00
2023-02-23T06:13:21.822Z,0.00
2023-02-23T06:14:24.665Z,0.00
2023-02-23T06:15:29.665Z,0.00
2023-02-23T06:16:31.965Z,0.00
2023-02-23T06:17:34.924Z,0.43
2023-02-23T06:18:37.809Z,1.00
2023-02-23T06:19:40.718Z,1.00
2023-02-23T06:20:43.591Z,1.00
2023-02-23T06:21:46.432Z,0.00
2023-02-23T06:22:49.412Z,0.33
2023-02-23T06:23:52.249Z,0.57
2023-02-23T06:24:55.134Z,0.67
2023-02-23T06:25:58.023Z,0.00
2023-02-23T06:27:00.962Z,0.71
2023-02-23T06:28:03.854Z,1.00
2023-02-23T06:29:06.680Z,1.00
2023-02-23T06:30:09.475Z,1.00
2023-02-23T06:31:12.399Z,0.67
2023-02-23T06:32:15.629Z,0.86
2023-02-23T06:33:18.691Z,1.57
2023-02-23T06:34:21.591Z,1.00
2023-02-23T06:35:24.515Z,0.83
2023-02-23T06:36:27.256Z,0.86
2023-02-23T06:37:30.208Z,1.00
2023-02-23T06:38:33.114Z,1.00
2023-02-23T06:39:36.193Z,1.33
2023-02-23T06:40:39.004Z,1.67
2023-02-23T06:41:41.908Z,0.67
2023-02-23T06:42:44.831Z,0.67
2023-02-23T06:43:47.684Z,0.00
2023-02-23T06:44:50.636Z,0.43
2023-02-23T06:45:53.555Z,1.33
2023-02-23T06:46:56.474Z,0.50
2023-02-23T06:47:59.352Z,0.29
2023-02-23T06:49:02.224Z,0.17
2023-02-23T06:50:07.883Z,0.00
2023-02-23T06:51:10.842Z,0.00
2023-02-23T06:52:13.705Z,0.33
2023-02-23T06:53:16.529Z,0.67
2023-02-23T06:54:19.322Z,0.43
2023-02-23T06:55:22.112Z,1.00
2023-02-23T06:56:25.001Z,1.00
2023-02-23T06:57:27.840Z,0.67
2023-02-23T06:58:30.830Z,0.43
2023-02-23T06:59:33.659Z,0.71
2023-02-23T07:00:36.545Z,0.83
2023-02-23T07:01:39.581Z,0.57
2023-02-23T07:02:42.439Z,0.00
2023-02-23T07:03:45.360Z,0.50
2023-02-23T07:04:48.258Z,0.14
2023-02-23T07:05:51.101Z,0.33
2023-02-23T07:06:54.157Z,1.00
2023-02-23T07:07:56.993Z,0.57
2023-02-23T07:08:59.894Z,0.83
2023-02-23T07:10:02.832Z,1.00
2023-02-23T07:11:05.816Z,1.00
2023-02-23T07:12:08.749Z,1.00
2023-02-23T07:13:11.610Z,1.00
2023-02-23T07:14:21.426Z,1.00
2023-02-23T07:15:18.776Z,1.00
2023-02-23T07:16:21.402Z,0.33
2023-02-23T07:17:24.276Z,1.00
2023-02-23T07:18:27.128Z,0.00
2023-02-23T07:19:29.969Z,1.00
2023-02-23T07:20:32.901Z,1.00
2023-02-23T07:21:35.725Z,1.00
2023-02-23T07:22:39.903Z,1.43
2023-02-23T07:23:42.711Z,1.50
2023-02-23T07:24:45.618Z,1.00
2023-02-23T07:25:48.966Z,0.57
2023-02-23T07:26:52.022Z,0.00
2023-02-23T07:27:55.011Z,0.71
2023-02-23T07:28:57.865Z,1.00
2023-02-23T07:30:01.155Z,1.00
2023-02-23T07:31:04.086Z,0.43
2023-02-23T07:32:07.065Z,1.00
2023-02-23T07:33:10.214Z,0.57
2023-02-23T07:34:13.178Z,0.83
2023-02-23T07:35:16.065Z,1.67
2023-02-23T07:36:18.855Z,1.00
2023-02-23T07:37:21.905Z,0.67
2023-02-23T07:38:24.913Z,2.00
2023-02-23T07:39:27.647Z,2.00
2023-02-23T07:40:30.590Z,0.67
2023-02-23T07:41:33.294Z,0.29
2023-02-23T07:42:35.921Z,0.50
2023-02-23T07:43:38.564Z,0.43
2023-02-23T07:44:41.229Z,0.00
2023-02-23T07:45:45.607Z,0.00
2023-02-23T07:46:47.704Z,1.00
2023-02-23T07:47:50.265Z,1.00
2023-02-23T07:48:52.892Z,0.67
2023-02-23T07:49:55.517Z,0.33
2023-02-23T07:50:58.230Z,1.17
2023-02-23T07:52:00.890Z,1.33
2023-02-23T07:53:03.615Z,1.67
2023-02-23T07:54:06.327Z,1.00
2023-02-23T07:55:08.877Z,1.00
2023-02-23T07:56:11.614Z,0.67
2023-02-23T07:57:14.187Z,0.33
2023-02-23T07:58:16.863Z,1.00
2023-02-23T07:59:19.469Z,1.00
2023-02-23T08:00:22.112Z,0.67
2023-02-23T08:01:24.908Z,0.83
2023-02-23T08:02:27.639Z,0.86
2023-02-23T08:03:30.405Z,0.67
2023-02-23T08:04:33.097Z,0.29
2023-02-23T08:05:35.889Z,0.67
2023-02-23T08:06:38.408Z,0.83
2023-02-23T08:07:41.210Z,1.00
2023-02-23T08:08:43.835Z,1.00
2023-02-23T08:09:46.573Z,1.00
2023-02-23T08:10:50.033Z,1.33
2023-02-23T08:11:52.970Z,1.57
2023-02-23T08:12:55.620Z,1.00
2023-02-23T08:13:58.277Z,0.83
2023-02-23T08:15:01.008Z,0.00
2023-02-23T08:16:03.728Z,0.43
2023-02-23T08:17:06.557Z,0.67
2023-02-23T08:18:09.198Z,0.43
2023-02-23T08:19:11.876Z,0.67
2023-02-23T08:20:14.550Z,0.00
2023-02-23T08:21:17.431Z,0.00
2023-02-23T08:22:20.222Z,0.00
2023-02-23T08:23:22.842Z,0.43
2023-02-23T08:24:25.514Z,0.67
2023-02-23T08:25:28.278Z,0.33
2023-02-23T08:26:30.903Z,0.57
2023-02-23T08:27:33.494Z,0.33
2023-02-23T08:28:36.179Z,1.00
2023-02-23T08:29:38.749Z,1.00
2023-02-23T08:30:41.482Z,1.33
2023-02-23T08:31:44.375Z,2.00
2023-02-23T08:32:47.230Z,2.00
2023-02-23T08:33:49.902Z,2.17
2023-02-23T08:34:52.475Z,1.17
2023-02-23T08:35:55.245Z,0.67
2023-02-23T08:36:57.971Z,0.00
2023-02-23T08:38:00.772Z,0.71
2023-02-23T08:39:03.389Z,0.67
2023-02-23T08:40:06.074Z,1.17
2023-02-23T08:41:08.797Z,1.00
2023-02-23T08:42:11.450Z,1.00
2023-02-23T08:43:14.070Z,1.00
2023-02-23T08:44:16.725Z,1.33
2023-02-23T08:45:19.278Z,1.67
2023-02-23T08:46:21.974Z,0.50
2023-02-23T08:47:24.649Z,1.17
2023-02-23T08:48:27.384Z,1.33
2023-02-23T08:49:29.978Z,2.00
2023-02-23T08:50:32.567Z,1.00
2023-02-23T08:51:35.277Z,1.33
2023-02-23T08:52:37.878Z,1.33
2023-02-23T08:53:40.522Z,0.33
2023-02-23T08:54:43.175Z,1.00
2023-02-23T08:55:45.895Z,1.33
2023-02-23T08:56:48.479Z,1.67
2023-02-23T08:57:51.081Z,1.00
2023-02-23T08:58:53.679Z,1.33
2023-02-23T08:59:56.281Z,1.67
2023-02-23T09:00:59.118Z,1.00
2023-02-23T09:02:01.882Z,0.71
2023-02-23T09:03:04.428Z,1.33
2023-02-23T09:04:07.055Z,2.00
2023-02-23T09:05:09.761Z,1.83
2023-02-23T09:06:12.366Z,1.33
2023-02-23T09:07:15.031Z,0.33
2023-02-23T09:08:17.783Z,1.43
2023-02-23T09:09:20.389Z,1.00
2023-02-23T09:10:23.159Z,1.00
2023-02-23T09:11:25.874Z,0.57
2023-02-23T09:12:28.478Z,0.00
2023-02-23T09:13:31.228Z,0.00
2023-02-23T09:14:33.918Z,0.67
2023-02-23T09:15:36.680Z,1.00
2023-02-23T09:16:39.432Z,1.00
2023-02-23T09:17:42.137Z,1.00
2023-02-23T09:18:44.871Z,1.33
2023-02-23T09:19:47.523Z,2.29
2023-02-23T09:20:50.152Z,1.67
2023-02-23T09:21:52.779Z,1.00
2023-02-23T09:22:55.471Z,1.50
2023-02-23T09:23:58.257Z,1.33
2023-02-23T09:25:00.881Z,0.33
2023-02-23T09:26:03.532Z,1.00
2023-02-23T09:27:06.154Z,1.33
2023-02-23T09:28:08.807Z,1.33
2023-02-23T09:29:11.601Z,0.57
2023-02-23T09:30:14.277Z,0.00
2023-02-23T09:31:17.109Z,0.33
2023-02-23T09:32:19.950Z,1.00
2023-02-23T09:33:22.585Z,1.50
2023-02-23T09:34:25.299Z,0.33
2023-02-23T09:35:28.131Z,0.33
2023-02-23T09:36:34.180Z,0.57
2023-02-23T09:37:37.025Z,0.00
2023-02-23T09:38:39.944Z,0.33
2023-02-23T09:39:42.793Z,1.00
2023-02-23T09:40:45.829Z,0.86
2023-02-23T09:41:50.353Z,0.83
2023-02-23T09:42:53.212Z,0.88
2023-02-23T09:43:56.139Z,0.67
2023-02-23T09:44:59.159Z,0.17
2023-02-23T09:46:02.108Z,0.00
2023-02-23T09:47:05.021Z,0.33
2023-02-23T09:48:07.946Z,0.67
2023-02-23T09:49:10.901Z,0.14
2023-02-23T09:50:13.783Z,0.00
2023-02-23T09:51:17.141Z,0.43
2023-02-23T09:52:20.540Z,1.00
2023-02-23T09:53:23.343Z,0.67
2023-02-23T09:54:26.743Z,1.00
2023-02-23T09:55:29.650Z,1.00
2023-02-23T09:56:32.504Z,1.00
2023-02-23T09:57:35.514Z,0.67
2023-02-23T09:58:38.513Z,0.43
2023-02-23T09:59:41.509Z,0.67
2023-02-23T10:00:44.350Z,0.00
2023-02-23T10:01:47.254Z,0.43
2023-02-23T10:02:50.126Z,0.67
2023-02-23T10:03:53.114Z,0.43
2023-02-23T10:04:57.515Z,0.67
2023-02-23T10:06:00.141Z,0.86
2023-02-23T10:07:03.142Z,1.67
2023-02-23T10:08:06.046Z,1.00
2023-02-23T10:09:08.923Z,0.67
2023-02-23T10:10:11.866Z,0.00
2023-02-23T10:11:14.911Z,0.00
2023-02-23T10:12:17.792Z,0.00
2023-02-23T10:13:20.699Z,0.00
2023-02-23T10:14:23.620Z,0.00
2023-02-23T10:15:26.452Z,0.33
2023-02-23T10:16:29.287Z,0.57
2023-02-23T10:17:32.161Z,0.33
2023-02-23T10:18:46.036Z,1.00
2023-02-23T10:19:39.117Z,0.88
2023-02-23T10:20:42.076Z,0.33
2023-02-23T10:21:45.096Z,0.57
2023-02-23T10:22:47.963Z,0.43
2023-02-23T10:23:50.857Z,0.67
2023-02-23T10:24:53.679Z,0.00
2023-02-23T10:25:56.512Z,0.00
2023-02-23T10:26:59.586Z,0.43
2023-02-23T10:28:02.604Z,1.00
2023-02-23T10:29:05.659Z,1.00
2023-02-23T10:30:08.593Z,1.00
2023-02-23T10:31:11.543Z,1.00
2023-02-23T10:32:14.614Z,1.00
2023-02-23T10:33:17.511Z,0.67
2023-02-23T10:34:22.393Z,0.43
2023-02-23T10:35:24.698Z,0.62
2023-02-23T10:36:28.027Z,0.57
2023-02-23T10:37:30.981Z,0.00
2023-02-23T10:38:33.812Z,0.00
2023-02-23T10:39:36.731Z,0.33
2023-02-23T10:40:39.681Z,0.67
2023-02-23T10:41:42.555Z,0.33
2023-02-23T10:42:45.550Z,1.00
2023-02-23T10:43:48.591Z,0.67
2023-02-23T10:44:51.467Z,0.00
2023-02-23T10:45:54.428Z,0.00
2023-02-23T10:46:57.338Z,0.33
2023-02-23T10:48:00.203Z,0.67
2023-02-23T10:49:03.099Z,0.00
2023-02-23T10:50:06.052Z,0.33
2023-02-23T10:51:08.960Z,0.29
2023-02-23T10:52:12.027Z,0.00
2023-02-23T10:53:14.955Z,0.00
2023-02-23T10:54:17.796Z,0.00
2023-02-23T10:55:20.684Z,0.00
2023-02-23T10:56:23.523Z,0.00
2023-02-23T10:57:26.648Z,0.00
2023-02-23T10:58:29.566Z,0.33
2023-02-23T10:59:32.476Z,1.00
2023-02-23T11:00:35.547Z,0.67
2023-02-23T11:01:41.840Z,0.00
2023-02-23T11:02:42.793Z,0.00
2023-02-23T11:03:46.898Z,0.00
2023-02-23T11:04:49.934Z,0.50
2023-02-23T11:05:53.024Z,1.00
2023-02-23T11:06:56.031Z,0.14
2023-02-23T11:07:59.080Z,0.33
2023-02-23T11:09:02.508Z,1.00
2023-02-23T11:10:05.461Z,0.57
2023-02-23T11:11:08.333Z,0.33
2023-02-23T11:12:11.184Z,0.57
2023-02-23T11:13:14.600Z,0.33
2023-02-23T11:14:17.424Z,0.57
2023-02-23T11:15:20.264Z,0.43
2023-02-23T11:16:23.260Z,1.00
2023-02-23T11:17:26.504Z,0.67
2023-02-23T11:18:29.645Z,0.43
2023-02-23T11:19:32.501Z,1.00
2023-02-23T11:20:35.461Z,0.83
2023-02-23T11:21:38.512Z,0.67
2023-02-23T11:22:41.600Z,0.00
2023-02-23T11:23:44.718Z,0.00
2023-02-23T11:24:47.606Z,0.43
2023-02-23T11:25:50.452Z,0.83
2023-02-23T11:26:53.256Z,0.00
2023-02-23T11:27:56.178Z,0.33
2023-02-23T11:28:59.096Z,1.00
2023-02-23T11:30:01.952Z,1.00
2023-02-23T11:31:04.959Z,1.33
2023-02-23T11:32:10.194Z,1.14
2023-02-23T11:33:12.053Z,0.00
2023-02-23T11:34:15.207Z,0.33
2023-02-23T11:35:18.040Z,0.43
2023-02-23T11:36:20.873Z,0.57
2023-02-23T11:37:23.797Z,0.00
2023-02-23T11:38:26.673Z,0.86
2023-02-23T11:39:29.887Z,1.67
2023-02-23T11:40:32.788Z,0.67
2023-02-23T11:41:35.730Z,0.00
2023-02-23T11:42:38.552Z,0.33
2023-02-23T11:43:41.447Z,0.67
2023-02-23T11:44:44.372Z,0.29
2023-02-23T11:45:47.426Z,0.00
2023-02-23T11:46:50.738Z,0.43
2023-02-23T11:47:53.703Z,0.57
2023-02-23T11:48:56.677Z,0.00
2023-02-23T11:49:59.811Z,0.33
2023-02-23T11:51:02.757Z,0.67
2023-02-23T11:52:05.584Z,0.71
2023-02-23T11:53:08.455Z,0.50
2023-02-23T11:54:11.312Z,0.33
2023-02-23T11:55:14.125Z,0.67
2023-02-23T11:56:17.443Z,0.00
2023-02-23T11:57:20.403Z,0.43
2023-02-23T11:58:23.312Z,0.57
2023-02-23T11:59:26.174Z,0.00
2023-02-23T12:00:29.604Z,0.43
2023-02-23T12:01:32.480Z,1.00
2023-02-23T12:02:35.394Z,0.57
2023-02-23T12:03:38.233Z,0.00
2023-02-23T12:04:41.090Z,0.00
2023-02-23T12:05:43.966Z,0.00
2023-02-23T12:06:47.054Z,0.00
2023-02-23T12:07:49.957Z,0.00
2023-02-23T12:08:52.924Z,0.00
2023-02-23T12:09:55.718Z,0.00
2023-02-23T12:10:58.858Z,0.00
2023-02-23T12:12:01.829Z,0.33
2023-02-23T12:13:04.780Z,1.00
2023-02-23T12:14:07.754Z,0.57
2023-02-23T12:15:10.538Z,0.00
2023-02-23T12:16:13.551Z,0.00
2023-02-23T12:17:16.571Z,0.43
2023-02-23T12:18:19.473Z,0.17
2023-02-23T12:19:22.404Z,0.00
2023-02-23T12:20:25.296Z,0.00
2023-02-23T12:21:28.459Z,0.33
2023-02-23T12:22:31.431Z,0.57
2023-02-23T12:23:34.298Z,0.00
2023-02-23T12:24:37.061Z,0.00
2023-02-23T12:25:39.967Z,0.00
2023-02-23T12:26:43.040Z,0.00
2023-02-23T12:27:45.918Z,0.00
2023-02-23T12:28:48.687Z,0.43
2023-02-23T12:29:51.654Z,0.67
2023-02-23T12:30:54.538Z,0.00
2023-02-23T12:31:57.536Z,0.00
2023-02-23T12:33:00.435Z,0.00
2023-02-23T12:34:03.456Z,0.43
2023-02-23T12:35:06.419Z,0.67
2023-02-23T12:36:09.350Z,0.00
2023-02-23T12:37:12.389Z,0.00
2023-02-23T12:38:15.246Z,0.00
2023-02-23T12:39:18.106Z,0.00
2023-02-23T12:40:21.040Z,0.00
2023-02-23T12:41:23.972Z,0.00
2023-02-23T12:42:27.319Z,0.00
2023-02-23T12:43:30.180Z,0.00
2023-02-23T12:44:32.990Z,0.00
2023-02-23T12:45:35.892Z,0.00
2023-02-23T12:46:38.766Z,0.00
2023-02-23T12:47:41.919Z,0.00
2023-02-23T12:48:44.871Z,0.00
2023-02-23T12:49:47.744Z,0.00
2023-02-23T12:50:50.695Z,0.00
2023-02-23T12:51:53.487Z,0.00
2023-02-23T12:52:56.493Z,0.00
2023-02-23T12:53:59.438Z,0.29
2023-02-23T12:55:02.293Z,0.57
2023-02-23T12:56:05.137Z,0.33
2023-02-23T12:57:08.003Z,1.00
2023-02-23T12:58:11.039Z,0.67
2023-02-23T12:59:13.905Z,0.00
2023-02-23T13:00:16.838Z,0.00
2023-02-23T13:01:19.957Z,0.00
2023-02-23T13:02:23.056Z,0.43
2023-02-23T13:03:26.130Z,0.67
2023-02-23T13:04:28.974Z,0.00
2023-02-23T13:05:31.836Z,0.00
2023-02-23T13:06:34.732Z,0.00
2023-02-23T13:07:37.771Z,0.00
2023-02-23T13:08:40.727Z,0.00
2023-02-23T13:09:43.561Z,0.00
2023-02-23T13:10:46.510Z,0.00
2023-02-23T13:11:49.538Z,0.29
2023-02-23T13:12:52.593Z,0.00
2023-02-23T13:13:55.516Z,0.00
2023-02-23T13:14:58.334Z,0.00
2023-02-23T13:16:01.271Z,0.00
2023-02-23T13:17:06.847Z,0.33
2023-02-23T13:18:09.811Z,0.50
2023-02-23T13:19:12.657Z,0.43
2023-02-23T13:20:15.523Z,0.67
2023-02-23T13:21:18.572Z,0.00
2023-02-23T13:22:21.589Z,0.00
2023-02-23T13:23:24.458Z,0.00
2023-02-23T13:24:27.791Z,0.29
2023-02-23T13:25:30.816Z,0.57
2023-02-23T13:26:33.750Z,0.43
2023-02-23T13:27:36.618Z,0.17
2023-02-23T13:28:39.614Z,0.00
2023-02-23T13:29:42.528Z,0.00
2023-02-23T13:30:45.506Z,0.00
2023-02-23T13:31:48.659Z,0.00
2023-02-23T13:32:51.649Z,0.00
2023-02-23T13:33:54.455Z,0.00
2023-02-23T13:34:57.480Z,0.33
2023-02-23T13:36:00.358Z,1.00
2023-02-23T13:37:03.347Z,0.67
2023-02-23T13:38:06.126Z,0.00
2023-02-23T13:39:17.853Z,0.83
2023-02-23T13:40:13.132Z,1.00
2023-02-23T13:41:15.964Z,0.67
2023-02-23T13:42:18.832Z,0.00
2023-02-23T13:43:21.695Z,0.00
2023-02-23T13:44:24.637Z,0.00
2023-02-23T13:45:27.576Z,0.33
2023-02-23T13:46:30.553Z,0.57
2023-02-23T13:47:33.466Z,0.00
2023-02-23T13:48:44.481Z,0.00
2023-02-23T13:49:40.396Z,0.00
2023-02-23T13:50:43.277Z,0.43
2023-02-23T13:51:46.179Z,0.67
2023-02-23T13:52:48.993Z,0.43
2023-02-23T13:53:51.907Z,1.00
2023-02-23T13:54:54.905Z,0.29
2023-02-23T13:55:57.768Z,0.00
2023-02-23T13:57:00.626Z,0.00